Time;durP1;ratioP1;P1;durP2;ratioP2;P2;SDS_P1;SDS_P2;PMS_P1;PMS_P2;Temp;Humidity;BMP_temperature;BMP_pressure;BME280_temperature;BME280_humidity;BME280_pressure;Samples;Min_cycle;Max_cycle;Signal;HPM_P1;HPM_P2
2023/10/25 00:02:13;;;;;;;12.38;7.00;;;;;;;8.11;100.00;100107.59;5050408;28;20511;-81
2023/10/25 00:04:38;;;;;;;12.48;6.75;;;;;;;8.06;100.00;100110.56;5048976;28;20029;-80
2023/10/25 00:07:04;;;;;;;10.60;7.18;;;;;;;8.08;100.00;100111.28;5050219;28;20029;-80
2023/10/25 00:09:29;;;;;;;17.27;7.47;;;;;;;8.08;100.00;100111.28;5049936;28;20471;-81
2023/10/25 00:11:54;;;;;;;14.48;7.20;;;;;;;8.00;100.00;100107.56;5066662;28;20408;-81
2023/10/25 00:14:20;;;;;;;12.27;7.47;;;;;;;8.03;100.00;100105.56;5050763;28;20021;-80
2023/10/25 00:16:45;;;;;;;15.02;7.07;;;;;;;7.97;100.00;100099.94;5050459;28;20043;-80
2023/10/25 00:19:11;;;;;;;12.85;7.30;;;;;;;7.98;100.00;100093.75;5050880;28;20102;-80
2023/10/25 00:21:36;;;;;;;11.90;7.57;;;;;;;7.94;100.00;100100.16;5047598;28;20056;-81
2023/10/25 00:24:02;;;;;;;19.25;7.65;;;;;;;7.93;100.00;100099.31;5042959;28;20025;-81
2023/10/25 00:26:27;;;;;;;14.43;7.60;;;;;;;7.92;100.00;100091.59;5031500;28;20108;-81
2023/10/25 00:28:53;;;;;;;12.63;7.68;;;;;;;7.91;100.00;100090.75;5029967;28;20053;-81
2023/10/25 00:31:18;;;;;;;15.25;8.27;;;;;;;7.91;100.00;100095.16;5045013;28;20043;-81
2023/10/25 00:33:43;;;;;;;13.25;7.70;;;;;;;7.83;100.00;100095.75;5050144;28;20031;-81
2023/10/25 00:36:09;;;;;;;12.77;7.35;;;;;;;7.85;100.00;100101.69;5050119;28;20056;-81
2023/10/25 00:38:37;;;;;;;14.85;7.95;;;;;;;7.84;100.00;100100.84;5048069;28;20100;-81
2023/10/25 00:41:02;;;;;;;14.27;7.72;;;;;;;7.82;100.00;100096.69;5040595;28;20021;-81
2023/10/25 00:43:28;;;;;;;14.80;7.93;;;;;;;7.80;100.00;100095.97;5048979;28;20040;-81
2023/10/25 00:46:11;;;;;;;11.85;7.38;;;;;;;7.82;100.00;100099.31;5032040;28;20017;-81
2023/10/25 00:48:37;;;;;;;12.02;7.00;;;;;;;7.70;100.00;100100.22;5047433;28;20584;-81
2023/10/25 00:51:03;;;;;;;11.50;6.95;;;;;;;7.74;100.00;100093.81;5048868;28;20036;-81
2023/10/25 00:53:31;;;;;;;14.05;7.28;;;;;;;7.74;100.00;100104.28;5049496;28;20028;-81
2023/10/25 00:55:58;;;;;;;11.13;6.80;;;;;;;7.71;100.00;100099.28;5048640;28;20090;-82
2023/10/25 00:58:24;;;;;;;11.35;6.63;;;;;;;7.68;100.00;100095.09;5030666;28;20029;-81
2023/10/25 01:00:53;;;;;;;13.75;6.65;;;;;;;7.69;100.00;100090.69;5044102;28;20056;-81
2023/10/25 01:03:20;;;;;;;10.38;5.63;;;;;;;7.65;100.00;100079.63;5049747;28;20017;-82
2023/10/25 01:05:47;;;;;;;12.00;6.10;;;;;;;7.63;100.00;100080.69;5048126;28;20021;-81
2023/10/25 01:08:16;;;;;;;11.65;6.20;;;;;;;7.58;100.00;100083.63;5049185;28;20064;-81
2023/10/25 01:10:42;;;;;;;16.17;5.90;;;;;;;7.62;100.00;100076.41;5038631;28;20036;-80
2023/10/25 01:13:07;;;;;;;12.48;5.57;;;;;;;7.61;100.00;100078.19;5049059;28;20029;-80
2023/10/25 01:15:32;;;;;;;13.32;5.93;;;;;;;7.58;100.00;100077.53;5050563;28;20032;-80
2023/10/25 01:17:58;;;;;;;12.20;5.72;;;;;;;7.57;100.00;100070.63;5043763;28;20123;-80
2023/10/25 01:20:23;;;;;;;14.98;5.68;;;;;;;7.55;100.00;100073.38;5032177;28;20479;-81
2023/10/25 01:22:48;;;;;;;8.45;4.97;;;;;;;7.57;100.00;100068.03;5030616;28;20498;-80
2023/10/25 01:25:14;;;;;;;8.77;5.50;;;;;;;7.54;100.00;100067.31;5049541;28;20044;-81
2023/10/25 01:27:40;;;;;;;9.55;5.10;;;;;;;7.55;100.00;100058.50;5031211;28;20108;-80
2023/10/25 01:30:06;;;;;;;11.80;4.80;;;;;;;7.51;100.00;100054.44;5049541;28;20028;-80
2023/10/25 01:32:31;;;;;;;9.35;5.15;;;;;;;7.48;100.00;100046.81;5050114;28;20036;-81
2023/10/25 01:34:57;;;;;;;12.55;5.10;;;;;;;7.50;100.00;100039.69;5047807;28;20029;-80
2023/10/25 01:37:22;;;;;;;9.80;4.72;;;;;;;7.54;100.00;100035.88;5030909;28;20033;-81
2023/10/25 01:39:47;;;;;;;10.27;4.85;;;;;;;7.49;100.00;100043.25;5049474;28;20025;-81
2023/10/25 01:42:13;;;;;;;12.27;5.30;;;;;;;7.48;100.00;100033.72;5048115;28;20094;-81
2023/10/25 01:44:38;;;;;;;9.35;4.80;;;;;;;7.49;100.00;100039.81;5047641;28;20162;-82
2023/10/25 01:47:03;;;;;;;10.15;5.18;;;;;;;7.48;100.00;100030.28;5048561;28;20028;-81
2023/10/25 01:49:29;;;;;;;11.13;5.05;;;;;;;7.47;100.00;100034.69;5047777;28;20471;-81
2023/10/25 01:51:54;;;;;;;9.48;4.68;;;;;;;7.44;100.00;100021.81;5046912;28;20035;-81
2023/10/25 01:54:19;;;;;;;9.77;5.00;;;;;;;7.48;100.00;100025.88;5037688;28;20470;-81
2023/10/25 01:56:45;;;;;;;11.40;4.80;;;;;;;7.52;100.00;100019.47;5039388;28;20032;-81
2023/10/25 01:59:10;;;;;;;10.75;5.40;;;;;;;7.52;100.00;100022.09;5047335;28;20478;-81
2023/10/25 02:01:35;;;;;;;9.80;4.70;;;;;;;7.57;100.00;100008.66;5023796;28;20050;-81
2023/10/25 02:04:01;;;;;;;9.98;4.78;;;;;;;7.52;100.00;100011.63;5009928;28;20081;-81
2023/10/25 02:06:26;;;;;;;12.50;4.80;;;;;;;7.57;100.00;100013.88;5024075;28;20458;-81
2023/10/25 02:08:52;;;;;;;9.23;4.50;;;;;;;7.60;100.00;100015.44;5008051;28;20038;-81
2023/10/25 02:11:20;;;;;;;10.00;4.50;;;;;;;7.59;100.00;100011.16;5006608;28;20034;-81
2023/10/25 02:13:45;;;;;;;9.57;4.20;;;;;;;7.63;100.00;100007.38;5008633;28;20029;-81
2023/10/25 02:16:18;;;;;;;9.77;4.63;;;;;;;7.62;100.00;100011.78;5008842;28;20025;-81
2023/10/25 02:18:43;;;;;;;10.18;4.32;;;;;;;7.61;100.00;100004.88;5008290;28;20030;-81
2023/10/25 02:21:10;;;;;;;10.23;4.57;;;;;;;7.65;100.00;100005.47;5025965;28;20030;-81
2023/10/25 02:23:39;;;;;;;11.32;4.18;;;;;;;7.62;100.00;100000.47;5028182;28;20107;-81
2023/10/25 02:26:04;;;;;;;9.75;4.13;;;;;;;7.64;100.00;99988.09;5012470;28;20080;-81
2023/10/25 02:28:29;;;;;;;9.52;3.90;;;;;;;7.64;100.00;99994.19;5010828;28;20030;-81
2023/10/25 02:30:54;;;;;;;9.20;3.55;;;;;;;7.65;100.00;99984.53;5012351;28;20037;-81
2023/10/25 02:33:20;;;;;;;11.27;4.00;;;;;;;7.67;100.00;99983.47;5013913;28;20022;-81
2023/10/25 02:35:45;;;;;;;10.30;3.63;;;;;;;7.71;100.00;99982.28;5013616;28;20022;-81
2023/10/25 02:38:10;;;;;;;9.93;3.50;;;;;;;7.70;100.00;99979.78;5014399;28;20049;-81
2023/10/25 02:40:36;;;;;;;8.85;3.70;;;;;;;7.71;100.00;99970.97;5011654;28;20352;-81
2023/10/25 02:43:01;;;;;;;11.18;3.60;;;;;;;7.70;100.00;99967.53;5013842;28;20387;-81
2023/10/25 02:45:27;;;;;;;8.73;3.58;;;;;;;7.73;100.00;99962.06;5010997;28;20023;-81
2023/10/25 02:47:55;;;;;;;9.13;3.55;;;;;;;7.72;100.00;99959.56;5009962;28;20458;-81
2023/10/25 02:50:20;;;;;;;11.13;3.85;;;;;;;7.75;100.00;99956.69;5002384;28;20084;-81
2023/10/25 02:52:48;;;;;;;8.73;3.47;;;;;;;7.73;100.00;99956.00;5010620;28;20030;-81
2023/10/25 02:55:17;;;;;;;7.95;3.25;;;;;;;7.74;100.00;99952.41;5008978;28;20388;-81
2023/10/25 02:57:43;;;;;;;6.95;3.10;;;;;;;7.78;100.00;99951.22;5011689;28;20030;-81
2023/10/25 03:00:10;;;;;;;9.82;3.60;;;;;;;7.80;100.00;99946.72;5010398;28;20112;-81
2023/10/25 03:02:36;;;;;;;8.20;3.53;;;;;;;7.80;100.00;99942.31;5025513;28;20563;-81
2023/10/25 03:05:02;;;;;;;9.75;3.20;;;;;;;7.82;100.00;99944.81;5029011;28;20026;-80
2023/10/25 03:07:27;;;;;;;8.55;3.45;;;;;;;7.86;100.00;99930.50;5019884;28;20025;-80
2023/10/25 03:09:53;;;;;;;6.38;3.35;;;;;;;7.87;100.00;99929.56;5009898;28;20045;-81
2023/10/25 03:12:18;;;;;;;12.95;3.58;;;;;;;7.90;100.00;99918.84;5010581;28;20018;-80
2023/10/25 03:14:43;;;;;;;10.65;3.55;;;;;;;7.93;100.00;99925.63;5028314;28;20037;-81
2023/10/25 03:17:09;;;;;;;6.70;3.47;;;;;;;7.93;100.00;99918.59;5023768;28;20105;-81
2023/10/25 03:19:34;;;;;;;6.63;3.60;;;;;;;7.97;100.00;99917.41;5009272;28;20022;-81
2023/10/25 03:22:00;;;;;;;9.40;3.50;;;;;;;7.99;100.00;99910.25;5012359;28;20041;-81
2023/10/25 03:24:25;;;;;;;8.10;3.33;;;;;;;8.00;100.00;99911.94;5011844;28;20105;-81
2023/10/25 03:26:50;;;;;;;9.15;3.80;;;;;;;8.00;100.00;99906.69;5029458;28;20554;-81
2023/10/25 03:29:17;;;;;;;10.15;3.55;;;;;;;8.04;100.00;99908.16;5043886;28;20486;-81
2023/10/25 03:31:42;;;;;;;7.38;3.30;;;;;;;8.06;100.00;99906.25;5014838;28;20087;-81
2023/10/25 03:34:08;;;;;;;9.38;3.35;;;;;;;8.05;100.00;99904.56;5015753;28;20041;-82
2023/10/25 03:36:33;;;;;;;9.52;3.38;;;;;;;8.07;100.00;99905.28;5011371;28;20076;-81
2023/10/25 03:39:00;;;;;;;9.77;3.60;;;;;;;8.10;100.00;99905.03;5008981;28;20049;-81
2023/10/25 03:41:25;;;;;;;7.95;3.30;;;;;;;8.09;100.00;99895.50;5014969;28;20471;-81
2023/10/25 03:43:50;;;;;;;8.30;3.70;;;;;;;8.10;100.00;99898.97;5026724;28;20195;-81
2023/10/25 03:46:16;;;;;;;7.07;3.40;;;;;;;8.10;100.00;99894.56;5030845;28;20029;-81
2023/10/25 03:48:41;;;;;;;7.53;3.40;;;;;;;8.11;100.00;99893.59;5031710;28;20212;-81
2023/10/25 03:51:07;;;;;;;7.35;3.45;;;;;;;8.13;100.00;99894.31;5042318;28;20064;-81
2023/10/25 03:53:37;;;;;;;9.27;3.75;;;;;;;8.14;100.00;99898.59;5027402;28;20064;-81
2023/10/25 03:56:03;;;;;;;10.07;3.45;;;;;;;8.13;100.00;99896.94;5013740;28;20038;-81
2023/10/25 03:58:28;;;;;;;8.82;3.40;;;;;;;8.16;100.00;99888.84;5015480;28;20399;-81
2023/10/25 04:01:01;;;;;;;8.38;3.60;;;;;;;8.17;100.00;99880.00;5031485;28;20061;-81
2023/10/25 04:03:27;;;;;;;9.55;3.97;;;;;;;8.17;100.00;99881.81;5051780;28;20033;-81
2023/10/25 04:05:53;;;;;;;8.00;3.65;;;;;;;8.15;100.00;99883.72;5032488;28;20039;-81
2023/10/25 04:08:18;;;;;;;8.65;3.67;;;;;;;8.16;100.00;99891.44;5049506;28;20025;-81
2023/10/25 04:10:51;;;;;;;7.75;3.40;;;;;;;8.20;100.00;99880.72;5049005;28;20064;-81
2023/10/25 04:13:17;;;;;;;10.02;3.78;;;;;;;8.18;100.00;99881.69;5046273;28;20013;-81
2023/10/25 04:15:43;;;;;;;8.68;3.80;;;;;;;8.18;100.00;99878.22;5050647;28;20493;-81
2023/10/25 04:18:10;;;;;;;11.38;3.90;;;;;;;8.19;100.00;99879.88;5050017;28;20033;-81
2023/10/25 04:20:35;;;;;;;12.95;3.30;;;;;;;8.20;100.00;99881.56;5046162;28;20090;-81
2023/10/25 04:23:00;;;;;;;8.60;3.45;;;;;;;8.23;100.00;99885.72;5049005;28;20021;-77
2023/10/25 04:25:26;;;;;;;11.10;3.72;;;;;;;8.22;100.00;99878.81;5050762;28;20517;-79
2023/10/25 04:27:53;;;;;;;10.52;3.95;;;;;;;8.24;100.00;99876.91;5049300;28;20095;-79
2023/10/25 04:30:18;;;;;;;11.73;3.80;;;;;;;8.25;100.00;99875.94;5032510;28;20028;-78
2023/10/25 04:32:46;;;;;;;10.80;3.80;;;;;;;8.26;100.00;99880.22;5050361;28;20016;-77
2023/10/25 04:35:12;;;;;;;10.10;3.85;;;;;;;8.25;100.00;99874.16;5047451;28;20027;-77
2023/10/25 04:37:37;;;;;;;9.82;4.30;;;;;;;8.27;100.00;99869.63;5045936;28;20033;-77
2023/10/25 04:40:03;;;;;;;10.38;3.78;;;;;;;8.28;100.00;99870.47;5047482;28;20044;-77
2023/10/25 04:42:29;;;;;;;7.32;3.70;;;;;;;8.29;100.00;99861.63;5048957;28;20037;-77
2023/10/25 04:44:54;;;;;;;8.02;4.03;;;;;;;8.29;100.00;99853.78;5046264;28;20035;-77
2023/10/25 04:47:19;;;;;;;11.73;4.30;;;;;;;8.31;100.00;99846.63;5046138;28;20064;-77
2023/10/25 04:49:45;;;;;;;7.88;3.85;;;;;;;8.32;100.00;99848.28;5050784;28;20017;-78
2023/10/25 04:52:10;;;;;;;11.35;4.35;;;;;;;8.33;100.00;99847.34;5050391;28;20047;-77
2023/10/25 04:54:35;;;;;;;8.75;3.92;;;;;;;8.33;100.00;99844.72;5028937;28;20312;-77
2023/10/25 04:57:01;;;;;;;9.05;4.10;;;;;;;8.35;100.00;99848.06;5049483;28;20040;-79
2023/10/25 04:59:29;;;;;;;13.85;4.40;;;;;;;8.34;100.00;99836.75;5050651;28;20029;-78
2023/10/25 05:01:54;;;;;;;8.45;4.13;;;;;;;8.37;100.00;99835.66;5048366;28;20098;-79
2023/10/25 05:04:19;;;;;;;12.15;4.38;;;;;;;8.37;100.00;99819.94;5027999;28;20029;-79
2023/10/25 05:06:46;;;;;;;8.65;4.22;;;;;;;8.37;100.00;99818.16;5050223;28;20078;-77
2023/10/25 05:09:11;;;;;;;8.63;3.97;;;;;;;8.39;100.00;99818.03;5048908;28;20021;-78
2023/10/25 05:11:38;;;;;;;8.07;3.97;;;;;;;8.40;100.00;99819.69;5047578;28;20479;-78
2023/10/25 05:14:04;;;;;;;8.68;4.07;;;;;;;8.39;100.00;99813.63;5045722;28;20039;-78
2023/10/25 05:16:29;;;;;;;12.68;4.80;;;;;;;8.39;100.00;99807.56;5028358;28;20491;-77
2023/10/25 05:18:55;;;;;;;9.65;4.07;;;;;;;8.40;100.00;99810.03;5047119;28;20031;-77
2023/10/25 05:21:26;;;;;;;9.07;4.10;;;;;;;8.41;100.00;99805.66;5045800;28;20067;-78
2023/10/25 05:23:52;;;;;;;7.47;4.13;;;;;;;8.42;100.00;99796.84;5043939;28;20056;-77
2023/10/25 05:26:18;;;;;;;13.15;4.43;;;;;;;8.43;100.00;99793.25;5047096;28;20020;-78
2023/10/25 05:28:43;;;;;;;12.95;4.50;;;;;;;8.42;100.00;99799.47;5048628;28;20021;-79
2023/10/25 05:31:16;;;;;;;9.35;3.90;;;;;;;8.42;100.00;99791.59;5050563;28;20024;-79
2023/10/25 05:33:41;;;;;;;14.93;4.32;;;;;;;8.42;100.00;99786.34;5036286;28;20086;-79
2023/10/25 05:36:07;;;;;;;9.38;4.40;;;;;;;8.41;100.00;99789.94;5049394;28;20029;-79
2023/10/25 05:38:33;;;;;;;7.38;3.78;;;;;;;8.42;100.00;99781.13;5030286;28;20020;-77
2023/10/25 05:40:59;;;;;;;8.73;4.05;;;;;;;8.43;100.00;99782.78;5048465;28;20036;-77
2023/10/25 05:43:28;;;;;;;10.38;3.80;;;;;;;8.44;100.00;99781.81;5044369;28;20021;-78
2023/10/25 05:45:54;;;;;;;7.10;3.90;;;;;;;8.45;100.00;99773.00;5028099;28;20400;-79
2023/10/25 05:48:20;;;;;;;8.88;3.67;;;;;;;8.44;100.00;99779.19;5029527;28;20525;-78
2023/10/25 05:50:49;;;;;;;11.52;4.35;;;;;;;8.45;100.00;99765.97;5047802;28;20029;-79
2023/10/25 05:53:15;;;;;;;7.82;4.18;;;;;;;8.46;100.00;99774.66;5051950;28;20051;-78
2023/10/25 05:55:41;;;;;;;9.40;3.92;;;;;;;8.47;100.00;99776.31;5068512;28;20025;-78
2023/10/25 05:58:07;;;;;;;8.93;4.30;;;;;;;8.47;100.00;99760.59;5034440;28;20028;-78
2023/10/25 06:00:33;;;;;;;10.45;4.07;;;;;;;8.46;100.00;99759.75;5046770;28;20074;-75
2023/10/25 06:03:00;;;;;;;11.57;4.20;;;;;;;8.50;100.00;99762.97;5047109;28;20552;-75
2023/10/25 06:05:27;;;;;;;9.32;4.20;;;;;;;8.50;100.00;99762.97;5059910;28;20036;-74
2023/10/25 06:07:52;;;;;;;9.13;4.05;;;;;;;8.50;100.00;99755.09;5068889;28;20028;-75
2023/10/25 06:10:18;;;;;;;7.38;3.92;;;;;;;8.50;100.00;99760.34;5058323;28;20452;-75
2023/10/25 06:12:44;;;;;;;9.68;4.03;;;;;;;8.51;100.00;99754.13;5047296;28;20025;-75
2023/10/25 06:15:10;;;;;;;9.88;4.00;;;;;;;8.52;100.00;99753.19;5047636;28;20388;-78
2023/10/25 06:17:35;;;;;;;8.50;3.75;;;;;;;8.53;100.00;99744.34;5033372;28;20031;-79
2023/10/25 06:20:01;;;;;;;7.00;3.60;;;;;;;8.55;100.00;99739.81;5043981;28;20033;-79
2023/10/25 06:22:26;;;;;;;8.38;3.80;;;;;;;8.56;100.00;99736.22;5048266;28;20021;-79
2023/10/25 06:24:52;;;;;;;6.15;3.67;;;;;;;8.59;100.00;99733.34;5045821;28;20111;-79
2023/10/25 06:27:17;;;;;;;6.63;3.88;;;;;;;8.60;100.00;99732.41;5045635;28;20498;-79
2023/10/25 06:29:42;;;;;;;9.35;3.30;;;;;;;8.59;100.00;99725.50;5029341;28;20060;-79
2023/10/25 06:32:08;;;;;;;10.45;3.83;;;;;;;8.62;100.00;99724.41;5030646;28;20057;-80
2023/10/25 06:34:33;;;;;;;9.82;3.90;;;;;;;8.62;100.00;99713.91;5030201;28;20363;-79
2023/10/25 06:37:03;;;;;;;10.48;3.40;;;;;;;8.63;100.00;99716.41;5033396;28;20533;-79
2023/10/25 06:39:29;;;;;;;7.35;3.38;;;;;;;8.63;100.00;99716.41;5047980;28;20452;-78
2023/10/25 06:41:54;;;;;;;8.00;3.03;;;;;;;8.65;100.00;99713.66;5032246;28;20021;-78
2023/10/25 06:44:20;;;;;;;7.25;3.38;;;;;;;8.68;100.00;99716.00;5047372;28;20447;-77
2023/10/25 06:46:46;;;;;;;7.38;3.00;;;;;;;8.68;100.00;99702.91;5046822;28;20017;-80
2023/10/25 06:49:11;;;;;;;9.13;3.30;;;;;;;8.70;100.00;99701.81;5047498;28;20068;-79
2023/10/25 06:51:37;;;;;;;8.13;3.50;;;;;;;8.71;100.00;99692.97;5048141;28;20029;-80
2023/10/25 06:54:03;;;;;;;8.05;3.65;;;;;;;8.74;100.00;99691.88;5049160;28;20398;-80
2023/10/25 06:56:33;;;;;;;8.13;3.17;;;;;;;8.75;100.00;99693.56;5043279;28;20112;-79
2023/10/25 06:58:58;;;;;;;9.55;3.35;;;;;;;8.77;100.00;99681.97;5027030;28;20395;-79
2023/10/25 07:01:27;;;;;;;7.97;2.97;;;;;;;8.78;100.00;99681.00;5043712;28;20049;-78
2023/10/25 07:03:56;;;;;;;6.35;2.88;;;;;;;8.82;100.00;99680.78;5029196;28;20037;-78
2023/10/25 07:06:22;;;;;;;6.47;3.15;;;;;;;8.83;100.00;99675.41;5024767;28;20395;-78
2023/10/25 07:08:48;;;;;;;8.30;2.97;;;;;;;8.86;100.00;99672.50;5033810;28;20022;-78
2023/10/25 07:11:14;;;;;;;7.53;3.17;;;;;;;8.89;100.00;99663.53;5031941;28;20032;-79
2023/10/25 07:13:39;;;;;;;6.75;2.83;;;;;;;8.91;100.00;99662.44;5032726;28;20025;-79
2023/10/25 07:16:06;;;;;;;6.57;3.42;;;;;;;8.93;100.00;99659.69;5032422;28;20390;-79
2023/10/25 07:18:32;;;;;;;7.30;3.35;;;;;;;8.95;100.00;99660.38;5032865;28;20048;-78
2023/10/25 07:20:58;;;;;;;9.00;3.53;;;;;;;8.94;100.00;99667.44;5033126;28;20022;-78
2023/10/25 07:23:23;;;;;;;9.35;3.38;;;;;;;8.96;100.00;99669.91;5036691;28;20391;-78
2023/10/25 07:25:49;;;;;;;7.53;3.30;;;;;;;8.94;100.00;99666.59;5052363;28;20028;-78
2023/10/25 07:28:14;;;;;;;9.13;3.70;;;;;;;8.95;100.00;99660.38;5052736;28;20031;-77
2023/10/25 07:30:40;;;;;;;6.43;3.40;;;;;;;8.96;100.00;99664.69;5049234;28;20021;-78
2023/10/25 07:33:06;;;;;;;9.93;3.85;;;;;;;8.97;100.00;99658.47;5052160;28;20494;-77
2023/10/25 07:35:31;;;;;;;5.80;3.33;;;;;;;8.96;100.00;99649.75;5050881;28;20029;-78
2023/10/25 07:37:56;;;;;;;9.90;3.53;;;;;;;8.96;100.00;99644.50;5033490;28;20032;-76
2023/10/25 07:40:22;;;;;;;7.15;3.42;;;;;;;8.95;100.00;99636.78;5034011;28;20127;-77
2023/10/25 07:42:47;;;;;;;7.72;3.92;;;;;;;8.99;100.00;99638.16;5051174;28;20025;-77
2023/10/25 07:45:13;;;;;;;6.70;3.55;;;;;;;8.99;100.00;99640.78;5051876;28;20572;-76
2023/10/25 07:47:38;;;;;;;5.88;3.53;;;;;;;9.00;100.00;99629.34;5017115;28;20530;-77
2023/10/25 07:50:05;;;;;;;6.93;3.60;;;;;;;9.01;100.00;99625.75;5031920;28;20037;-76
2023/10/25 07:52:33;;;;;;;10.88;3.90;;;;;;;9.04;100.00;99621.06;5051847;28;20381;-77
2023/10/25 07:55:03;;;;;;;7.03;3.30;;;;;;;9.06;100.00;99618.31;5051807;28;20021;-76
2023/10/25 07:57:29;;;;;;;10.77;3.53;;;;;;;9.09;100.00;99604.91;5049712;28;20426;-77
2023/10/25 07:59:54;;;;;;;6.35;3.40;;;;;;;9.10;100.00;99598.69;5031408;28;20463;-77
2023/10/25 08:02:20;;;;;;;6.55;4.00;;;;;;;9.13;100.00;99597.59;5033440;28;20055;-77
2023/10/25 08:04:45;;;;;;;6.63;3.50;;;;;;;9.16;100.00;99590.28;5050451;28;20036;-77
2023/10/25 08:07:10;;;;;;;10.32;3.40;;;;;;;9.18;100.00;99593.59;5051405;28;20029;-77
2023/10/25 08:09:39;;;;;;;7.80;3.55;;;;;;;9.18;100.00;99595.41;5033334;28;20115;-77
2023/10/25 08:12:05;;;;;;;8.10;3.55;;;;;;;9.19;100.00;99592.63;5033363;28;20528;-77
2023/10/25 08:14:30;;;;;;;6.95;3.13;;;;;;;9.20;100.00;99588.22;5050534;28;20025;-77
2023/10/25 08:16:56;;;;;;;6.97;3.53;;;;;;;9.19;100.00;99579.50;5051130;28;20082;-77
2023/10/25 08:19:21;;;;;;;7.82;3.08;;;;;;;9.21;100.00;99582.88;5050223;28;20024;-78
2023/10/25 08:21:47;;;;;;;7.13;3.50;;;;;;;9.20;100.00;99575.09;5051625;28;20036;-78
2023/10/25 08:24:12;;;;;;;6.38;3.55;;;;;;;9.26;100.00;99574.59;5051668;28;20438;-77
2023/10/25 08:26:39;;;;;;;6.47;3.20;;;;;;;9.29;100.00;99569.06;5032929;28;20494;-75
2023/10/25 08:29:05;;;;;;;7.38;2.90;;;;;;;9.29;100.00;99562.00;5033467;28;20159;-77
2023/10/25 08:31:32;;;;;;;8.20;3.03;;;;;;;9.34;100.00;99564.22;5049144;28;20107;-77
2023/10/25 08:33:57;;;;;;;7.43;2.95;;;;;;;9.34;100.00;99565.06;5038908;28;20566;-77
2023/10/25 08:36:23;;;;;;;6.93;3.40;;;;;;;9.34;100.00;99556.34;5049717;28;20159;-77
2023/10/25 08:38:49;;;;;;;6.38;3.30;;;;;;;9.35;100.00;99540.47;5051145;28;20029;-77
2023/10/25 08:41:17;;;;;;;9.10;3.05;;;;;;;9.33;100.00;99537.16;5032940;28;20025;-76
2023/10/25 08:43:43;;;;;;;8.13;3.13;;;;;;;9.31;100.00;99525.97;5049916;28;20033;-76
2023/10/25 08:46:09;;;;;;;6.32;3.05;;;;;;;9.29;100.00;99524.44;5032440;28;20367;-76
2023/10/25 08:48:34;;;;;;;8.93;3.38;;;;;;;9.30;100.00;99526.09;5049314;28;20063;-76
2023/10/25 08:51:00;;;;;;;8.32;3.53;;;;;;;9.29;100.00;99524.44;5031719;28;20059;-77
2023/10/25 08:53:27;;;;;;;7.30;3.63;;;;;;;9.28;100.00;99531.47;5050271;28;20040;-76
2023/10/25 08:55:54;;;;;;;8.25;3.58;;;;;;;9.28;100.00;99520.97;5050330;28;20032;-76
2023/10/25 08:58:20;;;;;;;9.57;4.13;;;;;;;9.27;100.00;99511.44;5047513;28;20348;-76
2023/10/25 09:00:46;;;;;;;8.40;3.42;;;;;;;9.29;100.00;99521.81;5049225;28;20382;-76
2023/10/25 09:03:30;;;;;;;9.48;3.95;;;;;;;9.32;100.00;99509.25;5050585;28;20032;-76
2023/10/25 09:05:55;;;;;;;8.70;4.45;;;;;;;9.31;100.00;99504.97;5032034;28;20036;-76
2023/10/25 09:08:21;;;;;;;7.82;4.20;;;;;;;9.26;100.00;99496.69;5048246;28;20092;-77
2023/10/25 09:10:56;;;;;;;8.50;4.30;;;;;;;9.27;100.00;99500.97;5048838;28;20020;-77
2023/10/25 09:13:22;;;;;;;5.40;4.18;;;;;;;9.24;100.00;99498.59;5032366;28;20029;-77
2023/10/25 09:15:48;;;;;;;11.38;4.50;;;;;;;9.23;100.00;99502.19;5048090;28;20074;-76
2023/10/25 09:18:13;;;;;;;9.55;3.78;;;;;;;9.20;100.00;99499.81;5048904;28;20487;-76
2023/10/25 09:20:38;;;;;;;8.18;4.15;;;;;;;9.20;100.00;99501.63;5049644;28;20033;-76
2023/10/25 09:23:12;;;;;;;8.80;4.22;;;;;;;9.20;100.00;99501.63;5049689;28;20055;-77
2023/10/25 09:25:37;;;;;;;6.93;4.18;;;;;;;9.23;100.00;99509.25;5031854;28;20402;-77
2023/10/25 09:28:04;;;;;;;6.45;3.90;;;;;;;9.21;100.00;99506.75;5049958;28;20025;-77
2023/10/25 09:30:30;;;;;;;11.02;4.72;;;;;;;9.20;100.00;99491.94;5049393;28;20017;-77
2023/10/25 09:32:57;;;;;;;9.23;4.10;;;;;;;9.20;100.00;99489.31;5050035;28;20398;-77
2023/10/25 09:35:23;;;;;;;10.60;4.53;;;;;;;9.19;100.00;99482.41;5047715;28;20071;-78
2023/10/25 09:37:49;;;;;;;7.38;4.45;;;;;;;9.19;100.00;99477.19;5037169;28;20513;-78
2023/10/25 09:40:14;;;;;;;8.93;5.43;;;;;;;9.19;100.00;99471.94;5029103;28;20037;-78
2023/10/25 09:42:45;;;;;;;7.60;4.60;;;;;;;9.17;100.00;99463.38;5029636;28;20128;-78
2023/10/25 09:45:14;;;;;;;6.88;4.50;;;;;;;9.14;100.00;99447.91;5028774;28;20021;-78
2023/10/25 09:47:42;;;;;;;10.40;5.18;;;;;;;9.13;100.00;99453.28;5028992;28;20044;-78
2023/10/25 09:50:16;;;;;;;12.02;6.32;;;;;;;9.09;100.00;99448.31;5046096;28;20029;-78
2023/10/25 09:52:45;;;;;;;10.00;5.55;;;;;;;9.07;100.00;99446.81;5030289;28;20033;-78
2023/10/25 09:55:20;;;;;;;10.55;5.78;;;;;;;9.06;100.00;99447.78;5049197;28;20048;-79
2023/10/25 09:57:47;;;;;;;9.50;5.70;;;;;;;9.04;100.00;99433.97;5045259;28;20082;-79
2023/10/25 10:00:14;;;;;;;9.75;5.88;;;;;;;9.05;100.00;99427.75;5048399;28;20025;-79
2023/10/25 10:03:02;;;;;;;10.90;6.35;;;;;;;9.05;100.00;99430.38;5031157;28;20045;-79
2023/10/25 10:05:36;;;;;;;11.77;6.70;;;;;;;9.03;100.00;99429.69;5034757;28;20025;-79
2023/10/25 10:08:16;;;;;;;10.55;6.68;;;;;;;9.04;100.00;99420.84;5046319;28;20033;-80
2023/10/25 10:11:04;;;;;;;8.57;6.38;;;;;;;9.00;100.00;99408.97;5041847;28;20025;-79
2023/10/25 10:13:30;;;;;;;10.88;7.47;;;;;;;8.99;100.00;99407.31;5045990;28;20433;-80
2023/10/25 10:16:09;;;;;;;10.70;7.22;;;;;;;9.01;100.00;99405.38;5030542;28;20032;-77
2023/10/25 10:18:36;;;;;;;11.05;7.30;;;;;;;8.99;100.00;99397.66;5028127;28;20021;-80
2023/10/25 10:21:07;;;;;;;13.02;7.80;;;;;;;9.00;100.00;99393.22;5048793;28;20108;-80
2023/10/25 10:23:38;;;;;;;10.35;7.90;;;;;;;9.02;100.00;99386.88;5047575;28;20026;-79
2023/10/25 10:26:04;;;;;;;11.10;8.50;;;;;;;9.04;100.00;99384.94;5047659;28;20040;-80
2023/10/25 10:28:48;;;;;;;10.93;7.95;;;;;;;9.04;100.00;99373.63;5049195;28;20115;-80
2023/10/25 10:31:14;;;;;;;9.68;7.53;;;;;;;9.05;100.00;99365.59;5045798;28;20039;-80
2023/10/25 10:33:48;;;;;;;11.18;8.07;;;;;;;9.06;100.00;99361.19;5052082;28;20025;-80
2023/10/25 10:36:24;;;;;;;9.82;7.68;;;;;;;9.09;100.00;99366.16;5047534;28;20036;-79
2023/10/25 10:39:16;;;;;;;10.65;7.55;;;;;;;9.14;100.00;99357.84;5017119;28;20052;-79
2023/10/25 10:41:44;;;;;;;12.43;8.02;;;;;;;9.16;100.00;99351.50;5049633;28;20031;-79
2023/10/25 10:44:11;;;;;;;9.63;7.22;;;;;;;9.21;100.00;99343.22;5051244;28;20079;-80
2023/10/25 10:46:43;;;;;;;9.20;7.05;;;;;;;9.20;100.00;99342.38;5034120;28;20021;-80
2023/10/25 10:49:13;;;;;;;10.25;6.68;;;;;;;9.21;100.00;99333.56;5052526;28;20052;-80
2023/10/25 10:51:39;;;;;;;8.68;6.00;;;;;;;9.23;100.00;99330.78;5051878;28;20425;-79
2023/10/25 10:54:04;;;;;;;9.65;6.40;;;;;;;9.24;100.00;99325.41;5050880;28;20082;-79
2023/10/25 10:56:29;;;;;;;9.60;6.72;;;;;;;9.26;100.00;99312.97;5049929;28;20036;-79
2023/10/25 10:58:55;;;;;;;10.05;6.95;;;;;;;9.27;100.00;99311.16;5035345;28;20111;-78
2023/10/25 11:01:20;;;;;;;8.30;7.07;;;;;;;9.29;100.00;99304.81;5050210;28;20097;-80
2023/10/25 11:03:48;;;;;;;8.68;6.82;;;;;;;9.27;100.00;99296.25;5048673;28;20020;-80
2023/10/25 11:06:14;;;;;;;7.47;6.30;;;;;;;9.27;100.00;99298.88;5034177;28;20078;-80
2023/10/25 11:08:39;;;;;;;9.45;6.70;;;;;;;9.28;100.00;99287.41;5037653;28;20115;-80
2023/10/25 11:11:05;;;;;;;10.98;6.88;;;;;;;9.28;100.00;99292.66;5051601;28;20074;-80
2023/10/25 11:13:30;;;;;;;7.70;6.57;;;;;;;9.30;100.00;99280.22;5052065;28;20029;-81
2023/10/25 11:16:10;;;;;;;8.25;6.57;;;;;;;9.33;100.00;99284.34;5050562;28;20112;-79
2023/10/25 11:18:35;;;;;;;8.23;6.18;;;;;;;9.30;100.00;99266.25;5049611;28;20029;-80
2023/10/25 11:21:01;;;;;;;8.55;6.90;;;;;;;9.34;100.00;99271.06;5051060;28;20385;-80
2023/10/25 11:23:27;;;;;;;8.55;6.80;;;;;;;9.36;100.00;99269.13;5058175;28;20028;-79
2023/10/25 11:25:54;;;;;;;8.70;6.43;;;;;;;9.36;100.00;99263.88;5051394;28;20029;-80
2023/10/25 11:28:20;;;;;;;9.05;6.32;;;;;;;9.39;100.00;99258.34;5050960;28;20393;-79